sim
Sign-in with your pilot id or email,
or register
Callsign
Passwort

Schedule Details

Flight Number: DLH2031
Departure: Berlin Tegel Airport (EDDT) at 08:00
Arrival: Munich Airport (EDDM) at 09:10
Route: Lufthansa Passenger Schedule. Enter filed route here before submitting Pirep.

Weather Information
Getting current METAR information for EDDT 260250Z 30003KT 260V340 9999 -RA NSC 11/08 Q0996 NOSIG
Getting current METAR information for EDDM 260250Z 27011KT 9999 SCT016 BKN024 08/06 Q1000 NOSIG

Schedule Frequency

Route Map